Latest Coastal Weather Observations for Learmonth

IDW60701

Issued at 2:03 am WST Saturday 19 August 2017 (issued every 10 minutes, with the page automatically refreshed every 10 minutes)

About coastal observations | Map of coastal stations | Coastal observations for WA | Marine services | Other Formats
Station Details ID: 005007 Name: LEARMONTH AIRPORT Lat: -22.24 Lon: 114.10 Height: 5.0 m
Data from the previous 72 hours. | See also: Recent months at Learmonth
Date/Time
WST
Temp
°C
Wind Pressure Rain since
9am
mm
Weather Cloud Vis
km
Sea
Height
m
Swell
Dir  Spd
kts
Gust
kts
hPa Trend Height
m
Period
s
Dir
19/01:30am 14.2 SW 7 8 1017.8 - 0.0 - - - - - - -
19/01:00am 14.7 SSW 7 8 1017.9 - 0.0 - - - - - - -
19/12:30am 15.1 SSW 7 8 1017.9 - 0.0 - - - - - - -
19/12:00am 16.0 SSW 9 10 1017.9 - 0.0 - - - - - - -
 
Date/Time
WST
Temp
°C
Wind Pressure Rain since
9am
mm
Weather Cloud Vis
km
Sea
Height
m
Swell
Dir  Spd
kts
Gust
kts
hPa Trend Height
m
Period
s
Dir
18/11:30pm 16.4 SSW 9 11 1018.0 - 0.0 - - - - - - -
18/11:00pm 16.6 SSW 8 9 1018.0 - 0.0 - - - - - - -
18/10:30pm 17.6 SSW 9 12 1017.9 - 0.0 - - - - - - -
18/10:00pm 18.4 SSW 11 16 1017.8 - 0.0 - - - - - - -
18/09:30pm 18.9 SW 13 16 1017.7 - 0.0 - Partly cloudy - - - - -
18/09:00pm 19.4 SW 14 19 1017.5 - 0.0 - - - - - - -
18/08:30pm 19.7 SW 15 18 1017.5 - 0.0 - Partly cloudy - - - - -
18/08:00pm 19.8 SW 15 21 1017.1 - 0.0 - Partly cloudy - - - - -
18/07:30pm 19.8 SW 15 21 1016.8 - 0.0 - Partly cloudy - - - - -
18/07:00pm 20.2 SW 17 21 1016.2 - 0.0 - - - - - - -
18/06:30pm 20.8 SSW 15 19 1015.7 - 0.0 - - - - - - -
18/06:00pm 22.0 SW 14 19 1015.0 - 0.0 - - - - - - -
18/05:30pm 23.6 SW 16 21 1014.8 - 0.0 - Partly cloudy - - - - -
18/05:00pm 24.0 SW 16 21 1014.6 - 0.0 - - - - - - -
18/04:30pm 24.7 SW 15 20 1014.4 - 0.0 - - - - - - -
18/04:00pm 26.2 SW 16 21 1014.1 - 0.0 - - - - - - -
18/03:30pm 27.1 SW 13 18 1013.9 - 0.0 - - - - - - -
18/03:00pm 27.1 SW 13 19 1013.7 - 0.0 - - - - - - -
18/02:30pm 27.3 SW 13 18 1013.7 - 0.0 - - - - - - -
18/02:00pm 27.2 SW 10 13 1014.0 - 0.0 - - - - - - -
18/01:30pm 25.0 E 11 13 1014.1 - 0.0 - - - - - - -
18/01:00pm 24.4 E 10 12 1014.6 - 0.0 - - - - - - -
18/12:30pm 24.2 E 10 12 1015.1 - 0.0 - - - - - - -
18/12:00pm 26.2 WSW 8 14 1015.2 - 0.0 - - - - - - -
18/11:30am 25.9 WSW 8 13 1015.7 - 0.0 - - - - - - -
18/11:00am 23.9 SW 8 12 1016.2 - 0.0 - - - - - - -
18/10:30am 23.8 SW 7 11 1016.4 - 0.0 - - - - - - -
18/10:00am 22.0 SSW 8 11 1016.5 - 0.0 - - - - - - -
18/09:30am 20.8 SSW 10 14 1016.5 - 0.0 - - - - - - -
18/09:00am 18.7 SSW 12 15 1016.2 - 0.0 - - - - - - -
18/08:30am 17.1 SSW 12 15 1016.2 - 0.0 - - - - - - -
18/08:00am 16.0 SSW 13 16 1016.1 - 0.0 - - - - - - -
18/07:30am 14.3 SSW 10 14 1015.7 - 0.0 - - - - - - -
18/07:00am 13.0 SSW 9 11 1015.4 - 0.0 - - - - - - -
18/06:30am 13.0 SW 10 12 1015.1 - 0.0 - - - - - - -
18/06:00am 12.9 SW 9 11 1014.7 - 0.0 - - - - - - -
18/05:30am 13.1 SW 9 11 1014.6 - 0.0 - - - - - - -
18/05:00am 12.9 SW 9 11 1014.2 - 0.0 - - - - - - -
18/04:30am 12.6 SW 10 11 1014.0 - 0.0 - - - - - - -
18/04:00am 12.4 SW 9 10 1014.1 - 0.0 - - - - - - -
18/03:30am 12.4 SSW 7 9 1014.1 - 0.0 - - - - - - -
18/03:00am 13.3 SSW 8 9 1014.0 - 0.0 - - - - - - -
18/02:30am 13.9 SW 8 9 1014.1 - 0.0 - - - - - - -
18/02:00am 14.4 SSW 10 12 1014.2 - 0.0 - - - - - - -
18/01:30am 15.1 SW 10 13 1014.3 - 0.0 - - - - - - -
18/01:00am 15.2 SW 10 13 1014.4 - 0.0 - - - - - - -
18/12:30am 15.7 SSW 11 16 1014.5 - 0.0 - - - - - - -
18/12:00am 16.0 SW 13 17 1014.6 - 0.0 - - - - - - -
 
Date/Time
WST
Temp
°C
Wind Pressure Rain since
9am
mm
Weather Cloud Vis
km
Sea
Height
m
Swell
Dir  Spd
kts
Gust
kts
hPa Trend Height
m
Period
s
Dir
17/11:30pm 16.1 SW 12 16 1014.8 - 0.0 - - - - - - -
17/11:00pm 16.2 SSW 9 12 1015.2 - 0.0 - - - - - - -
17/10:30pm 16.7 SSW 9 11 1015.3 - 0.0 - - - - - - -
17/10:00pm 17.8 SSW 9 11 1015.3 - 0.0 - - - - - - -
17/09:30pm 18.5 SSW 8 11 1015.0 - 0.0 - - - - - - -
17/09:00pm 19.2 SSW 8 12 1014.6 - 0.0 - - - - - - -
17/08:30pm 19.7 SW 10 13 1014.3 - 0.0 - - - - - - -
17/08:00pm 19.9 SW 12 16 1014.1 - 0.0 - - - - - - -
17/07:30pm 20.3 SW 14 19 1013.5 - 0.0 - - - - - - -
17/07:00pm 21.2 SW 14 19 1013.0 - 0.0 - - - - - - -
17/06:30pm 22.4 SW 13 17 1012.4 - 0.0 - - - - - - -
17/06:00pm 24.4 SW 13 17 1011.9 - 0.0 - - - - - - -
17/05:30pm 27.3 S 6 8 1011.9 - 0.0 - - - - - - -
17/05:00pm 27.7 SSE 6 9 1011.9 - 0.0 - - - - - - -
17/04:30pm 27.8 SE 7 10 1012.1 - 0.0 - - - - - - -
17/04:00pm 27.8 SSE 6 8 1012.2 - 0.0 - - - - - - -
17/03:30pm 27.7 SSE 6 10 1012.3 - 0.0 - - - - - - -
17/03:00pm 27.1 E 8 11 1012.5 - 0.0 - - - - - - -
17/02:30pm 27.3 E 9 12 1012.8 - 0.0 - - - - - - -
17/02:00pm 27.1 SE 8 11 1013.2 - 0.0 - - - - - - -
17/01:30pm 26.4 SE 9 13 1013.7 - 0.0 - - - - - - -
17/01:00pm 25.4 SE 10 15 1014.3 - 0.0 - - - - - - -
17/12:30pm 24.9 ESE 12 15 1014.9 - 0.0 - - - - - - -
17/12:00pm 24.3 ESE 11 14 1015.2 - 0.0 - - - - - - -
17/11:30am 24.1 SSE 13 17 1015.8 - 0.0 - - - - - - -
17/11:00am 22.4 SE 14 19 1016.4 - 0.0 - - - - - - -
17/10:30am 21.6 SE 15 19 1016.8 - 0.0 - - - - - - -
17/10:00am 20.7 SE 15 21 1017.1 - 0.0 - - - - - - -
17/09:30am 20.0 SSE 15 20 1017.1 - 0.0 - - - - - - -
17/09:00am 19.1 SSE 13 18 1017.2 - 0.0 - - - - - - -
17/08:30am 17.6 S 12 17 1017.3 - 0.0 - - - - - - -
17/08:00am 15.1 SSW 10 13 1017.1 - 0.0 - - - - - - -
17/07:30am 12.9 SSW 11 14 1016.9 - 0.0 - - - - - - -
17/07:00am 11.4 SW 10 12 1017.1 - 0.0 - - - - - - -
17/06:30am 11.1 SW 10 12 1016.9 - 0.0 - - - - - - -
17/06:00am 11.3 SW 10 11 1016.6 - 0.0 - - - - - - -
17/05:30am 11.0 SW 10 11 1016.4 - 0.0 - - - - - - -
17/05:00am 10.9 SW 9 11 1016.3 - 0.0 - - - - - - -
17/04:30am 11.0 SW 9 10 1016.2 - 0.0 - - - - - - -
17/04:00am 11.3 SW 9 10 1016.4 - 0.0 - - - - - - -
17/03:30am 11.6 SW 9 10 1016.5 - 0.0 - - - - - - -
17/03:00am 11.9 SW 10 11 1016.5 - 0.0 - - - - - - -
17/02:30am 12.1 SW 9 10 1016.7 - 0.0 - - - - - - -
17/02:00am 12.5 SW 8 10 1016.7 - 0.0 - - - - - - -
17/01:30am 12.4 SSW 10 13 1016.7 - 0.0 - - - - - - -
17/01:00am 12.6 SSW 11 12 1016.7 - 0.0 - - - - - - -
17/12:30am 14.1 S 10 13 1016.6 - 0.0 - - - - - - -
17/12:00am 14.7 S 11 14 1016.5 - 0.0 - - - - - - -
 
Date/Time
WST
Temp
°C
Wind Pressure Rain since
9am
mm
Weather Cloud Vis
km
Sea
Height
m
Swell
Dir  Spd
kts
Gust
kts
hPa Trend Height
m
Period
s
Dir
16/11:30pm 15.2 S 12 15 1016.8 - 0.0 - - - - - - -
16/11:00pm 15.7 S 13 17 1017.0 - 0.0 - - - - - - -
16/10:30pm 16.5 S 14 17 1017.1 - 0.0 - - - - - - -
16/10:00pm 16.9 S 15 18 1017.2 - 0.0 - - - - - - -
16/09:30pm 16.9 S 13 16 1017.3 - 0.0 - - - - - - -
16/09:00pm 16.6 SSW 12 14 1017.3 - 0.0 - - - - - - -
16/08:30pm 17.1 S 12 14 1017.3 - 0.0 - - - - - - -
16/08:00pm 17.4 S 11 14 1017.2 - 0.0 - - - - - - -
16/07:30pm 17.5 SSW 11 14 1016.8 - 0.0 - - - - - - -
16/07:00pm 18.9 S 11 13 1016.4 - 0.0 - - - - - - -
16/06:30pm 19.8 S 11 15 1016.0 - 0.0 - - - - - - -
16/06:00pm 21.4 S 13 16 1015.7 - 0.0 - - - - - - -
16/05:30pm 22.8 SSE 17 21 1015.5 - 0.0 - - - - - - -
16/05:00pm 23.4 SSE 19 24 1015.3 - 0.0 - - - - - - -
16/04:30pm 23.8 SSE 18 24 1015.2 - 0.0 - - - - - - -
16/04:00pm 24.1 SSE 18 26 1015.2 - 0.0 - - - - - - -
16/03:30pm 24.0 SSE 18 24 1015.2 - 0.0 - - - - - - -
16/03:00pm 24.8 SSE 18 24 1015.2 - 0.0 - - - - - - -
16/02:30pm 24.0 SSE 19 25 1015.7 - 0.0 - - - - - - -
16/02:16pm 24.2 SE 21 27 1015.9 - 0.0 - - - - - - -
16/02:00pm 23.5 S 18 27 1016.2 - 0.0 - - - - - - -
16/01:40pm 23.7 S 18 28 1016.4 - 0.0 - - - - - - -
16/01:30pm 23.3 S 19 26 1016.6 - 0.0 - - - - - - -
16/01:00pm 23.0 S 18 26 1017.3 - 0.0 - - - - - - -
16/12:30pm 22.5 S 17 27 1018.1 - 0.0 - - - - - - -
16/12:25pm 23.1 S 17 27 1018.1 - 0.0 - - - - - - -
16/12:00pm 22.6 SSE 18 27 1018.3 - 0.0 - - - - - - -
16/11:30am 22.5 SSE 21 25 1019.1 - 0.0 - - - - - - -
16/11:29am 22.4 SSE 21 25 1019.2 - 0.0 - - - - - - -
16/11:25am 21.9 S 20 27 1019.2 - 0.0 - - - - - - -
16/11:00am 22.0 SSE 18 24 1019.5 - 0.0 - - - - - - -
16/10:44am 21.7 SSE 18 29 1019.8 - 0.0 - - - - - - -
16/10:30am 20.9 SSE 17 22 1020.0 - 0.0 - - - - - - -
16/10:00am 20.3 SSE 16 21 1020.4 - 0.0 - - - - - - -
16/09:30am 19.0 S 16 20 1020.4 - 0.0 - - - - - - -
16/09:00am 18.0 S 16 20 1020.2 - 0.0 - - - - - - -
16/08:30am 16.4 S 16 21 1020.1 - 0.0 - - - - - - -
16/08:00am 15.1 S 14 17 1019.9 - 0.0 - - - - - - -
16/07:30am 13.4 S 11 14 1019.6 - 0.0 - - - - - - -
16/07:00am 11.6 SSW 9 11 1019.3 - 0.0 - - - - - - -
16/06:30am 11.2 SSW 9 11 1018.8 - 0.0 - - - - - - -
16/06:00am 11.3 SSW 9 11 1018.4 - 0.0 - - - - - - -
16/05:30am 11.9 SSW 10 12 1018.1 - 0.0 - - - - - - -
16/05:00am 12.4 SSW 10 13 1017.7 - 0.0 - - - - - - -
16/04:30am 12.6 SSW 11 13 1017.3 - 0.0 - - - - - - -
16/04:00am 12.9 SSW 11 14 1017.2 - 0.0 - - - - - - -
16/03:30am 13.3 SSW 11 14 1017.1 - 0.0 - - - - - - -
16/03:00am 13.7 SSW 11 15 1017.0 - 0.0 - - - - - - -
16/02:30am 13.9 S 11 16 1017.3 - 0.0 - - - - - - -

Other Formats:

Comma delimited format used in spreadsheet applications
http://www.bom.gov.au/fwo/IDW60701/IDW60701.94302.axf

JavaScript Object Notation format (JSON) in row-major order
http://www.bom.gov.au/fwo/IDW60701/IDW60701.94302.json